createdAt,value
2022-11-27T00:01:30.062Z,101070.91
2022-11-27T00:04:00.036Z,101066.22
2022-11-27T00:06:30.909Z,101073.91
2022-11-27T00:09:01.686Z,101070.56
2022-11-27T00:11:32.647Z,101072.25
2022-11-27T00:14:03.011Z,101081.72
2022-11-27T00:16:33.005Z,101090.19
2022-11-27T00:19:03.961Z,101092.22
2022-11-27T00:21:34.916Z,101097.47
2022-11-27T00:24:06.143Z,101099.91
2022-11-27T00:26:38.038Z,101098.88
2022-11-27T00:29:09.726Z,101097.75
2022-11-27T00:31:39.937Z,101106.28
2022-11-27T00:34:12.208Z,101107.84
2022-11-27T00:36:46.554Z,101115.50
2022-11-27T00:39:17.959Z,101114.03
2022-11-27T00:41:47.857Z,101110.25
2022-11-27T00:44:17.716Z,101113.22
2022-11-27T00:46:47.393Z,101124.38
2022-11-27T00:49:18.515Z,101135.38
2022-11-27T00:51:48.307Z,101126.72
2022-11-27T00:54:19.135Z,101131.44
2022-11-27T00:56:50.512Z,101130.09
2022-11-27T00:59:20.118Z,101130.59
2022-11-27T01:01:50.961Z,101136.50
2022-11-27T01:04:20.972Z,101142.47
2022-11-27T01:06:50.912Z,101140.19
2022-11-27T01:09:20.617Z,101145.63
2022-11-27T01:11:50.302Z,101145.63
2022-11-27T01:14:21.340Z,101155.53
2022-11-27T01:16:51.240Z,101157.97
2022-11-27T01:19:24.482Z,101157.22
2022-11-27T01:21:54.419Z,101159.28
2022-11-27T01:24:24.600Z,101168.25
2022-11-27T01:26:54.729Z,101170.59
2022-11-27T01:29:24.475Z,101178.03
2022-11-27T01:31:54.261Z,101181.88
2022-11-27T01:34:25.970Z,101181.19
2022-11-27T01:36:56.123Z,101191.91
2022-11-27T01:39:28.154Z,101189.66
2022-11-27T01:41:58.000Z,101202.03
2022-11-27T01:44:27.649Z,101201.38
2022-11-27T01:46:57.485Z,101207.25
2022-11-27T01:49:28.750Z,101210.22
2022-11-27T01:52:03.909Z,101211.47
2022-11-27T01:54:40.131Z,101221.00
2022-11-27T01:57:18.953Z,101223.47
2022-11-27T01:59:50.685Z,101214.91
2022-11-27T02:02:20.522Z,101220.25
2022-11-27T02:04:50.755Z,101219.06
2022-11-27T02:07:20.654Z,101223.97
2022-11-27T02:09:50.432Z,101237.25
2022-11-27T02:12:27.340Z,101231.88
2022-11-27T02:15:03.362Z,101230.06
2022-11-27T02:17:49.876Z,101231.47
2022-11-27T02:20:28.952Z,101232.13
2022-11-27T02:23:17.564Z,101231.13
2022-11-27T02:25:53.560Z,101248.28
2022-11-27T02:28:23.632Z,101246.56
2022-11-27T02:30:58.403Z,101234.22
2022-11-27T02:33:29.268Z,101241.75
2022-11-27T02:36:06.886Z,101235.00
2022-11-27T02:38:41.238Z,101234.00
2022-11-27T02:41:18.662Z,101243.84
2022-11-27T02:43:51.497Z,101235.69
2022-11-27T02:46:23.007Z,101234.78
2022-11-27T02:48:55.633Z,101238.34
2022-11-27T02:51:30.367Z,101237.94
2022-11-27T02:54:02.976Z,101230.88
2022-11-27T02:56:33.972Z,101226.91
2022-11-27T02:59:06.701Z,101227.28
2022-11-27T03:01:39.604Z,101219.84
2022-11-27T03:04:12.333Z,101223.22
2022-11-27T03:06:46.364Z,101222.22
2022-11-27T03:09:20.243Z,101216.78
2022-11-27T03:11:50.875Z,101218.81
2022-11-27T03:14:22.739Z,101212.50
2022-11-27T03:17:01.585Z,101210.56
2022-11-27T03:19:50.260Z,101216.28
2022-11-27T03:22:20.529Z,101205.66
2022-11-27T03:24:52.124Z,101193.09
2022-11-27T03:27:25.513Z,101187.47
2022-11-27T03:30:00.608Z,101191.28
2022-11-27T03:32:31.700Z,101184.13
2022-11-27T03:35:02.037Z,101188.31
2022-11-27T03:37:32.131Z,101176.78
2022-11-27T03:40:02.098Z,101171.78
2022-11-27T03:42:36.582Z,101169.31
2022-11-27T03:45:27.342Z,101168.50
2022-11-27T03:48:06.487Z,101156.25
2022-11-27T03:50:54.917Z,101156.53
2022-11-27T03:53:30.332Z,101149.59
2022-11-27T03:56:09.636Z,101143.97
2022-11-27T03:58:46.108Z,101146.63
2022-11-27T04:01:18.946Z,101135.78
2022-11-27T04:03:49.225Z,101126.06
2022-11-27T04:06:19.528Z,101127.38
2022-11-27T04:08:49.755Z,101127.56
2022-11-27T04:11:19.680Z,101127.38
2022-11-27T04:13:49.462Z,101114.78
2022-11-27T04:16:19.479Z,101107.25
2022-11-27T04:18:49.274Z,101101.75
2022-11-27T04:21:19.363Z,101093.66
2022-11-27T04:23:49.475Z,101085.13
2022-11-27T04:26:19.170Z,101082.84
2022-11-27T04:28:49.638Z,101076.44
2022-11-27T04:31:19.652Z,101060.91
2022-11-27T04:33:49.414Z,101055.56
2022-11-27T04:36:20.998Z,101061.97
2022-11-27T04:38:50.941Z,101058.47
2022-11-27T04:41:20.677Z,101060.59
2022-11-27T04:43:50.316Z,101057.22
2022-11-27T04:46:20.228Z,101045.00
2022-11-27T04:48:49.983Z,101046.94
2022-11-27T04:51:19.937Z,101038.72
2022-11-27T04:53:49.829Z,101040.03
2022-11-27T04:56:19.804Z,101026.66
2022-11-27T04:58:49.769Z,101021.72
2022-11-27T05:01:19.483Z,101020.91
2022-11-27T05:03:50.618Z,101022.03
2022-11-27T05:06:20.393Z,101011.38
2022-11-27T05:08:50.066Z,100998.69
2022-11-27T05:11:20.407Z,100992.19
2022-11-27T05:13:50.310Z,100989.53
2022-11-27T05:16:20.048Z,100984.38
2022-11-27T05:18:49.968Z,100969.09
2022-11-27T05:21:19.700Z,100967.97
2022-11-27T05:23:49.389Z,100959.34
2022-11-27T05:26:19.350Z,100956.34
2022-11-27T05:28:48.967Z,100955.22
2022-11-27T05:31:18.920Z,100949.22
2022-11-27T05:33:48.769Z,100941.22
2022-11-27T05:36:18.548Z,100946.47
2022-11-27T05:38:48.223Z,100932.16
2022-11-27T05:41:18.235Z,100928.59
2022-11-27T05:43:48.111Z,100914.00
2022-11-27T05:46:19.482Z,100920.16
2022-11-27T05:48:49.410Z,100914.63
2022-11-27T05:51:19.427Z,100909.94
2022-11-27T05:53:49.406Z,100900.50
2022-11-27T05:56:20.657Z,100893.84
2022-11-27T08:53:48.251Z,100707.94
2022-11-27T08:56:20.475Z,100708.94
2022-11-27T08:58:51.188Z,100721.91
2022-11-27T09:01:31.517Z,100727.97
2022-11-27T09:04:02.230Z,100735.16
2022-11-27T09:06:33.593Z,100732.94
2022-11-27T09:09:04.952Z,100721.66
2022-11-27T09:11:36.837Z,100722.00
2022-11-27T09:14:07.256Z,100724.75
2022-11-27T09:16:37.394Z,100715.00
2022-11-27T09:19:07.084Z,100726.38
2022-11-27T09:21:36.820Z,100719.53
2022-11-27T09:24:06.581Z,100718.41
2022-11-27T09:26:37.285Z,100721.50
2022-11-27T09:29:07.413Z,100722.78
2022-11-27T09:31:37.144Z,100724.41
2022-11-27T09:34:07.822Z,100731.50
2022-11-27T09:36:37.653Z,100740.72
2022-11-27T09:39:07.412Z,100739.09
2022-11-27T09:41:41.854Z,100741.41
2022-11-27T09:44:20.892Z,100746.47
2022-11-27T09:46:51.724Z,100749.75
2022-11-27T09:49:27.798Z,100749.28
2022-11-27T09:52:06.689Z,100749.25
2022-11-27T09:54:40.523Z,100754.75
2022-11-27T09:57:16.867Z,100748.44
2022-11-27T09:59:53.055Z,100751.66
2022-11-27T10:02:33.386Z,100744.19
2022-11-27T10:05:13.795Z,100746.41
2022-11-27T10:07:44.265Z,100751.94
2022-11-27T10:10:37.869Z,100759.28
2022-11-27T10:13:17.478Z,100760.91
2022-11-27T10:15:56.463Z,100759.41
2022-11-27T10:18:40.262Z,100769.09
2022-11-27T10:21:36.393Z,100765.22
2022-11-27T10:24:24.544Z,100779.56
2022-11-27T10:26:57.565Z,100784.34
2022-11-27T10:29:48.812Z,100792.97
2022-11-27T10:32:53.689Z,100805.13
2022-11-27T10:35:16.078Z,100807.41
2022-11-27T10:37:46.091Z,100815.97
2022-11-27T10:40:16.280Z,100810.84
2022-11-27T10:42:46.398Z,100817.97
2022-11-27T10:45:37.028Z,100817.97
2022-11-27T10:48:07.442Z,100811.81
2022-11-27T10:50:37.432Z,100822.84
2022-11-27T10:53:27.306Z,100823.31
2022-11-27T10:56:02.372Z,100829.38
2022-11-27T10:58:39.359Z,100820.09
2022-11-27T11:01:11.088Z,100820.75
2022-11-27T11:03:41.030Z,100817.34
2022-11-27T11:06:21.522Z,100815.25
2022-11-27T11:09:04.168Z,100816.53
2022-11-27T11:11:34.175Z,100821.03
2022-11-27T11:14:03.914Z,100829.44
2022-11-27T11:16:35.847Z,100827.06
2022-11-27T11:19:08.430Z,100824.44
2022-11-27T11:21:42.765Z,100819.28
2022-11-27T11:24:15.801Z,100822.88
2022-11-27T11:27:18.208Z,100830.03
2022-11-27T11:29:51.069Z,100835.06
2022-11-27T11:32:24.149Z,100831.53
2022-11-27T11:35:00.861Z,100839.94
2022-11-27T11:37:31.308Z,100841.56
2022-11-27T11:40:14.934Z,100848.34
2022-11-27T11:43:06.691Z,100853.88
2022-11-27T11:45:37.427Z,100856.78
2022-11-27T11:48:24.666Z,100855.66
2022-11-27T11:51:02.812Z,100857.28
2022-11-27T11:53:40.827Z,100864.28
2022-11-27T11:56:29.468Z,100856.47
2022-11-27T11:59:15.775Z,100856.16
2022-11-27T12:01:46.141Z,100860.28
2022-11-27T12:04:16.153Z,100861.63
2022-11-27T12:06:53.668Z,100858.88
2022-11-27T12:09:48.837Z,100862.09
2022-11-27T12:12:28.105Z,100867.63
2022-11-27T12:14:58.146Z,100871.56
2022-11-27T12:17:35.105Z,100879.66
2022-11-27T12:20:16.436Z,100883.38
2022-11-27T12:22:55.299Z,100898.13
2022-11-27T12:25:28.281Z,100895.66
2022-11-27T12:28:08.345Z,100896.16
2022-11-27T12:30:58.353Z,100910.09
2022-11-27T12:33:46.670Z,100906.53
2022-11-27T12:36:51.267Z,100921.75
2022-11-27T12:39:39.811Z,100920.63
2022-11-27T12:42:09.679Z,100940.75
2022-11-27T12:44:47.379Z,100937.88
2022-11-27T12:47:21.620Z,100938.56
2022-11-27T12:49:55.058Z,100928.75
2022-11-27T12:52:34.816Z,100934.78
2022-11-27T12:55:08.960Z,100933.38
2022-11-27T12:57:42.980Z,100946.31
2022-11-27T13:00:26.801Z,100951.03
2022-11-27T13:03:09.858Z,100950.53
2022-11-27T13:05:43.439Z,100945.53
2022-11-27T13:08:21.129Z,100951.84
2022-11-27T13:10:57.023Z,100954.72
2022-11-27T13:13:32.713Z,100960.88
2022-11-27T13:16:09.074Z,100963.16
2022-11-27T13:18:45.748Z,100967.22
2022-11-27T13:21:25.198Z,100963.44
2022-11-27T13:23:55.485Z,100963.75
2022-11-27T13:26:29.790Z,100966.63
2022-11-27T13:29:04.434Z,100974.78
2022-11-27T13:31:38.308Z,100967.28
2022-11-27T13:34:15.017Z,100971.97
2022-11-27T13:36:47.215Z,100975.22
2022-11-27T13:39:43.474Z,100981.31
2022-11-27T13:42:19.126Z,100986.34
2022-11-27T13:44:56.640Z,100974.78
2022-11-27T13:47:27.927Z,100975.31
2022-11-27T13:50:05.699Z,100971.03
2022-11-27T13:52:36.665Z,100990.16
2022-11-27T13:55:12.549Z,100998.75
2022-11-27T13:57:53.661Z,100994.25
2022-11-27T14:00:34.247Z,100996.00
2022-11-27T14:03:06.865Z,100987.06
2022-11-27T14:05:44.452Z,100998.75
2022-11-27T14:08:21.022Z,100992.47
2022-11-27T14:10:56.079Z,100992.97
2022-11-27T14:13:36.776Z,101007.13
2022-11-27T14:16:12.500Z,101001.31
2022-11-27T14:18:43.440Z,101007.66
2022-11-27T14:21:25.940Z,101006.84
2022-11-27T14:23:56.650Z,101001.16
2022-11-27T14:26:27.553Z,101005.22
2022-11-27T14:28:58.308Z,100997.44
2022-11-27T14:31:38.405Z,100999.88
2022-11-27T14:34:15.560Z,101002.63
2022-11-27T14:36:46.316Z,101004.19
2022-11-27T14:39:31.914Z,101007.13
2022-11-27T14:42:05.104Z,101008.28
2022-11-27T14:44:35.417Z,101009.91
2022-11-27T14:47:07.939Z,101009.59
2022-11-27T14:49:38.164Z,101011.25
2022-11-27T14:52:10.154Z,101012.53
2022-11-27T14:54:41.876Z,101018.38
2022-11-27T14:57:17.105Z,101021.16
2022-11-27T14:59:47.115Z,101027.66
2022-11-27T15:02:16.911Z,101031.13
2022-11-27T15:04:48.177Z,101024.59
2022-11-27T15:07:23.110Z,101034.50
2022-11-27T15:09:55.138Z,101029.50
2022-11-27T15:12:26.570Z,101042.28
2022-11-27T15:15:11.160Z,101033.38
2022-11-27T15:17:42.545Z,101035.31
2022-11-27T15:20:20.222Z,101036.66
2022-11-27T15:22:51.264Z,101038.28
2022-11-27T15:25:32.340Z,101036.44
2022-11-27T15:28:02.389Z,101039.69
2022-11-27T15:30:33.057Z,101050.13
2022-11-27T15:33:03.594Z,101054.00
2022-11-27T15:35:36.298Z,101061.78
2022-11-27T15:38:13.502Z,101061.47
2022-11-27T15:40:44.355Z,101057.88
2022-11-27T15:43:16.196Z,101057.28
2022-11-27T15:45:46.981Z,101059.34
2022-11-27T15:48:18.546Z,101060.16
2022-11-27T15:50:51.618Z,101069.25
2022-11-27T15:53:22.038Z,101070.66
2022-11-27T15:55:52.437Z,101068.84
2022-11-27T15:58:22.384Z,101065.47
2022-11-27T16:00:52.275Z,101064.47
2022-11-27T16:03:22.765Z,101057.38
2022-11-27T16:05:53.904Z,101066.56
2022-11-27T16:08:23.996Z,101057.53
2022-11-27T16:10:53.868Z,101065.63
2022-11-27T16:13:23.779Z,101057.34
2022-11-27T16:15:53.618Z,101062.69
2022-11-27T16:18:24.176Z,101062.16
2022-11-27T16:20:54.040Z,101060.53
2022-11-27T16:23:23.952Z,101062.47
2022-11-27T16:25:53.916Z,101066.75
2022-11-27T16:28:23.727Z,101059.09
2022-11-27T16:30:56.254Z,101050.81
2022-11-27T16:33:33.620Z,101044.81
2022-11-27T16:36:11.687Z,101044.31
2022-11-27T16:38:42.185Z,101044.31
2022-11-27T16:41:15.548Z,101039.91
2022-11-27T16:43:47.849Z,101042.84
2022-11-27T16:46:24.808Z,101039.59
2022-11-27T16:48:56.768Z,101032.75
2022-11-27T16:51:27.978Z,101031.63
2022-11-27T16:53:58.939Z,101023.03
2022-11-27T16:56:30.045Z,101035.19
2022-11-27T16:59:03.017Z,101028.38
2022-11-27T17:01:38.375Z,101025.81
2022-11-27T17:04:12.349Z,101025.63
2022-11-27T17:06:42.785Z,101019.16
2022-11-27T17:09:16.316Z,101020.63
2022-11-27T17:11:47.939Z,101019.78
2022-11-27T17:14:18.633Z,101013.47
2022-11-27T17:16:50.568Z,101011.22
2022-11-27T17:19:21.126Z,101010.38
2022-11-27T17:21:51.196Z,101009.38
2022-11-27T17:24:22.530Z,101006.59
2022-11-27T17:26:53.668Z,101003.84
2022-11-27T17:29:26.423Z,101000.09
2022-11-27T17:31:56.575Z,101000.81
2022-11-27T17:34:28.699Z,100995.91
2022-11-27T17:36:59.946Z,100998.34
2022-11-27T17:39:47.889Z,101006.13
2022-11-27T17:42:22.471Z,100998.97
2022-11-27T17:44:53.948Z,100998.66
2022-11-27T17:47:24.046Z,101004.50
2022-11-27T17:49:54.220Z,101006.41
2022-11-27T17:52:24.020Z,101008.56
2022-11-27T17:54:54.054Z,101000.63
2022-11-27T17:57:24.275Z,101008.56
2022-11-27T17:59:54.937Z,101002.03
2022-11-27T18:02:43.245Z,101002.53
2022-11-27T18:05:13.242Z,100993.47
2022-11-27T18:10:28.579Z,100985.19
2022-11-27T18:13:00.006Z,100976.09
2022-11-27T18:15:30.013Z,100978.84
2022-11-27T18:18:01.386Z,100978.75
2022-11-27T18:20:31.818Z,100972.22
2022-11-27T18:23:01.810Z,100977.09
2022-11-27T18:25:31.587Z,100977.44
2022-11-27T18:28:01.285Z,100974.16
2022-11-27T18:30:31.153Z,100967.81
2022-11-27T18:33:01.019Z,100970.56
2022-11-27T18:35:30.645Z,100967.03
2022-11-27T18:38:00.404Z,100963.44
2022-11-27T18:40:30.488Z,100967.31
2022-11-27T18:43:00.147Z,100963.75
2022-11-27T18:45:33.264Z,100967.31
2022-11-27T18:48:04.112Z,100959.25
2022-11-27T18:50:34.249Z,100959.53
2022-11-27T18:53:05.516Z,100952.72
2022-11-27T18:55:36.005Z,100957.41
2022-11-27T18:58:05.802Z,100951.88
2022-11-27T19:00:38.794Z,100949.47
2022-11-27T19:03:08.779Z,100945.25
2022-11-27T19:05:38.773Z,100949.13
2022-11-27T19:08:11.188Z,100952.72
2022-11-27T19:10:41.192Z,100947.50
2022-11-27T19:13:11.629Z,100945.25
2022-11-27T19:15:42.583Z,100946.38
2022-11-27T19:18:12.482Z,100943.63
2022-11-27T19:20:42.406Z,100937.31
2022-11-27T19:23:12.620Z,100938.94
2022-11-27T19:25:42.961Z,100935.34
2022-11-27T19:28:13.734Z,100923.84
2022-11-27T19:30:44.884Z,100917.69
2022-11-27T19:33:14.908Z,100921.56
2022-11-27T19:35:44.945Z,100921.09
2022-11-27T19:38:14.659Z,100919.94
2022-11-27T19:40:44.723Z,100914.41
2022-11-27T19:43:15.334Z,100904.53
2022-11-27T19:45:45.463Z,100907.31
2022-11-27T19:48:20.005Z,100911.97
2022-11-27T19:50:54.007Z,100912.50
2022-11-27T19:53:25.163Z,100913.63
2022-11-27T19:55:57.069Z,100915.25
2022-11-27T19:58:26.970Z,100911.66
2022-11-27T20:00:57.149Z,100911.97
2022-11-27T20:03:28.282Z,100914.75
2022-11-27T20:06:05.567Z,100900.16
2022-11-27T20:08:35.990Z,100911.47
2022-11-27T20:11:07.512Z,100914.41
2022-11-27T20:13:37.770Z,100911.97
2022-11-27T20:16:11.461Z,100915.56
2022-11-27T20:18:41.437Z,100916.69
2022-11-27T20:21:13.272Z,100923.84
2022-11-27T20:23:44.738Z,100920.56
2022-11-27T20:26:32.777Z,100917.50
2022-11-27T20:29:02.703Z,100911.97
2022-11-27T20:31:36.531Z,100910.06
2022-11-27T20:34:07.706Z,100908.44
2022-11-27T20:36:42.237Z,100916.69
2022-11-27T20:39:17.699Z,100915.56
2022-11-27T20:41:51.694Z,100923.84
2022-11-27T20:44:22.121Z,100923.84
2022-11-27T20:46:52.374Z,100923.84
2022-11-27T20:49:23.027Z,100908.44
2022-11-27T20:51:52.988Z,100916.38
2022-11-27T20:54:25.215Z,100906.47
2022-11-27T20:56:55.361Z,100907.31
2022-11-27T20:59:26.296Z,100904.34
2022-11-27T21:01:56.239Z,100908.72
2022-11-27T21:04:28.223Z,100905.97
2022-11-27T21:06:59.270Z,100902.09
2022-11-27T21:09:29.271Z,100912.31
2022-11-27T21:12:02.408Z,100907.91
2022-11-27T21:14:34.269Z,100915.06
2022-11-27T21:17:05.379Z,100911.19
2022-11-27T21:19:38.844Z,100921.38
2022-11-27T21:22:09.253Z,100928.03
2022-11-27T21:24:39.024Z,100933.25
2022-11-27T21:27:08.875Z,100929.66
2022-11-27T21:29:39.887Z,100934.38
2022-11-27T21:32:10.360Z,100933.53
2022-11-27T21:34:42.804Z,100933.84
2022-11-27T21:37:13.150Z,100933.84
2022-11-27T21:39:43.556Z,100931.38
2022-11-27T21:42:13.870Z,100938.03
2022-11-27T21:44:44.294Z,100935.59
2022-11-27T21:47:14.170Z,100936.09
2022-11-27T21:49:44.283Z,100934.16
2022-11-27T22:32:35.524Z,100932.06
2022-11-27T22:35:06.069Z,100944.72
2022-11-27T22:37:35.911Z,100945.22
2022-11-27T22:40:09.148Z,100948.97
2022-11-27T22:42:39.733Z,100954.38
2022-11-27T22:45:11.928Z,100959.81
2022-11-27T22:47:43.600Z,100969.59
2022-11-27T22:50:14.167Z,100972.25
2022-11-27T22:52:45.130Z,100972.47
2022-11-27T22:55:14.958Z,100972.47
2022-11-27T22:57:45.909Z,100982.69
2022-11-27T23:00:17.234Z,100982.69
2022-11-27T23:02:48.553Z,100983.28
2022-11-27T23:05:20.994Z,100981.56
2022-11-27T23:07:50.945Z,100982.97
2022-11-27T23:10:20.719Z,100986.38
2022-11-27T23:12:50.564Z,100991.47
2022-11-27T23:15:20.626Z,100991.47
2022-11-27T23:17:51.018Z,100990.34
2022-11-27T23:20:20.861Z,100996.66
2022-11-27T23:22:52.827Z,100993.91
2022-11-27T23:25:22.733Z,100997.44
2022-11-27T23:27:52.467Z,101008.47
2022-11-27T23:30:22.338Z,101016.75
2022-11-27T23:32:51.989Z,101021.13
2022-11-27T23:35:21.941Z,101024.41
2022-11-27T23:37:51.664Z,101028.94
2022-11-27T23:40:21.433Z,101031.69
2022-11-27T23:42:51.258Z,101031.34
2022-11-27T23:45:21.210Z,101038.50
2022-11-27T23:47:52.667Z,101039.13
2022-11-27T23:50:22.541Z,101040.56
2022-11-27T23:52:52.306Z,101047.06
2022-11-27T23:55:22.232Z,101048.69
2022-11-27T23:57:52.598Z,101049.03
